sensor_id;sensor_type;location;lat;lon;timestamp;temperature;humidity
80230;DHT22;69540;42.136;24.742;2023-07-02T00:00:00;28.80;36.50
80230;DHT22;69540;42.136;24.742;2023-07-02T00:02:26;28.80;36.50
80230;DHT22;69540;42.136;24.742;2023-07-02T00:04:51;28.80;36.50
80230;DHT22;69540;42.136;24.742;2023-07-02T00:07:17;28.80;36.50
80230;DHT22;69540;42.136;24.742;2023-07-02T00:09:43;28.80;36.50
80230;DHT22;69540;42.136;24.742;2023-07-02T00:12:09;28.80;36.50
80230;DHT22;69540;42.136;24.742;2023-07-02T00:14:35;28.90;36.50
80230;DHT22;69540;42.136;24.742;2023-07-02T00:17:01;28.80;36.50
80230;DHT22;69540;42.136;24.742;2023-07-02T00:19:26;28.90;36.60
80230;DHT22;69540;42.136;24.742;2023-07-02T00:21:52;28.80;36.50
80230;DHT22;69540;42.136;24.742;2023-07-02T00:24:21;28.80;36.50
80230;DHT22;69540;42.136;24.742;2023-07-02T00:26:47;28.80;36.50
80230;DHT22;69540;42.136;24.742;2023-07-02T00:29:12;28.80;36.50
80230;DHT22;69540;42.136;24.742;2023-07-02T00:31:38;28.80;36.50
80230;DHT22;69540;42.136;24.742;2023-07-02T00:34:04;28.80;36.50
80230;DHT22;69540;42.136;24.742;2023-07-02T00:36:31;28.80;36.50
80230;DHT22;69540;42.136;24.742;2023-07-02T00:38:57;28.90;36.70
80230;DHT22;69540;42.136;24.742;2023-07-02T00:41:24;28.80;36.50
80230;DHT22;69540;42.136;24.742;2023-07-02T00:43:50;28.80;36.50
80230;DHT22;69540;42.136;24.742;2023-07-02T00:46:20;28.80;36.60
80230;DHT22;69540;42.136;24.742;2023-07-02T00:48:55;28.90;36.60
80230;DHT22;69540;42.136;24.742;2023-07-02T00:51:23;28.80;37.60
80230;DHT22;69540;42.136;24.742;2023-07-02T00:53:51;28.90;36.70
80230;DHT22;69540;42.136;24.742;2023-07-02T00:56:17;28.80;36.60
80230;DHT22;69540;42.136;24.742;2023-07-02T00:58:45;28.80;36.50
80230;DHT22;69540;42.136;24.742;2023-07-02T01:01:23;28.80;36.60
80230;DHT22;69540;42.136;24.742;2023-07-02T01:04:04;28.80;36.60
80230;DHT22;69540;42.136;24.742;2023-07-02T01:06:32;28.80;36.60
80230;DHT22;69540;42.136;24.742;2023-07-02T01:09:02;28.80;36.60
80230;DHT22;69540;42.136;24.742;2023-07-02T01:11:34;28.80;36.60
80230;DHT22;69540;42.136;24.742;2023-07-02T01:14:14;28.80;37.70
80230;DHT22;69540;42.136;24.742;2023-07-02T01:16:42;28.90;36.80
80230;DHT22;69540;42.136;24.742;2023-07-02T01:19:37;28.80;36.70
80230;DHT22;69540;42.136;24.742;2023-07-02T01:21:59;28.80;36.80
80230;DHT22;69540;42.136;24.742;2023-07-02T01:24:26;28.80;37.80
80230;DHT22;69540;42.136;24.742;2023-07-02T01:26:52;28.80;36.70
80230;DHT22;69540;42.136;24.742;2023-07-02T01:29:20;28.80;36.70
80230;DHT22;69540;42.136;24.742;2023-07-02T01:31:46;28.80;36.80
80230;DHT22;69540;42.136;24.742;2023-07-02T01:34:13;28.80;36.70
80230;DHT22;69540;42.136;24.742;2023-07-02T01:36:39;28.80;36.70
80230;DHT22;69540;42.136;24.742;2023-07-02T01:39:05;28.80;36.70
80230;DHT22;69540;42.136;24.742;2023-07-02T01:41:45;28.80;36.70
80230;DHT22;69540;42.136;24.742;2023-07-02T01:44:10;28.80;36.70
80230;DHT22;69540;42.136;24.742;2023-07-02T01:46:36;28.80;36.70
80230;DHT22;69540;42.136;24.742;2023-07-02T01:49:02;28.80;36.80
80230;DHT22;69540;42.136;24.742;2023-07-02T01:51:28;28.80;36.70
80230;DHT22;69540;42.136;24.742;2023-07-02T01:53:53;28.80;36.70
80230;DHT22;69540;42.136;24.742;2023-07-02T01:56:19;28.80;36.70
80230;DHT22;69540;42.136;24.742;2023-07-02T01:58:45;28.80;36.70
80230;DHT22;69540;42.136;24.742;2023-07-02T02:01:10;28.80;36.70
80230;DHT22;69540;42.136;24.742;2023-07-02T02:03:36;28.80;37.20
80230;DHT22;69540;42.136;24.742;2023-07-02T02:06:01;28.80;36.70
80230;DHT22;69540;42.136;24.742;2023-07-02T02:08:27;28.80;36.70
80230;DHT22;69540;42.136;24.742;2023-07-02T02:10:53;28.80;36.70
80230;DHT22;69540;42.136;24.742;2023-07-02T02:13:18;28.90;36.80
80230;DHT22;69540;42.136;24.742;2023-07-02T02:15:44;28.80;36.70
80230;DHT22;69540;42.136;24.742;2023-07-02T02:18:10;28.80;36.70
80230;DHT22;69540;42.136;24.742;2023-07-02T02:20:35;28.80;36.70
80230;DHT22;69540;42.136;24.742;2023-07-02T02:23:01;28.80;36.70
80230;DHT22;69540;42.136;24.742;2023-07-02T02:25:27;28.90;36.80
80230;DHT22;69540;42.136;24.742;2023-07-02T02:27:53;28.90;37.90
80230;DHT22;69540;42.136;24.742;2023-07-02T02:30:18;28.80;36.70
80230;DHT22;69540;42.136;24.742;2023-07-02T02:32:44;28.80;36.70
80230;DHT22;69540;42.136;24.742;2023-07-02T02:35:10;28.80;36.70
80230;DHT22;69540;42.136;24.742;2023-07-02T02:37:38;28.80;36.70
80230;DHT22;69540;42.136;24.742;2023-07-02T02:40:04;28.90;36.80
80230;DHT22;69540;42.136;24.742;2023-07-02T02:42:31;28.90;36.80
80230;DHT22;69540;42.136;24.742;2023-07-02T02:44:56;28.80;36.70
80230;DHT22;69540;42.136;24.742;2023-07-02T02:47:22;28.80;36.80
80230;DHT22;69540;42.136;24.742;2023-07-02T02:49:48;28.80;36.70
80230;DHT22;69540;42.136;24.742;2023-07-02T02:52:13;28.80;36.80
80230;DHT22;69540;42.136;24.742;2023-07-02T02:54:40;28.80;36.70
80230;DHT22;69540;42.136;24.742;2023-07-02T02:57:05;28.80;36.70
80230;DHT22;69540;42.136;24.742;2023-07-02T02:59:31;28.80;36.70
80230;DHT22;69540;42.136;24.742;2023-07-02T03:01:57;28.80;36.70
80230;DHT22;69540;42.136;24.742;2023-07-02T03:04:22;28.80;36.70
80230;DHT22;69540;42.136;24.742;2023-07-02T03:06:51;28.80;36.80
80230;DHT22;69540;42.136;24.742;2023-07-02T03:09:19;28.80;36.70
80230;DHT22;69540;42.136;24.742;2023-07-02T03:11:45;28.80;36.80
80230;DHT22;69540;42.136;24.742;2023-07-02T03:14:10;28.80;36.70
80230;DHT22;69540;42.136;24.742;2023-07-02T03:16:36;28.80;36.70
80230;DHT22;69540;42.136;24.742;2023-07-02T03:19:02;28.80;36.70
80230;DHT22;69540;42.136;24.742;2023-07-02T03:21:28;28.80;36.90
80230;DHT22;69540;42.136;24.742;2023-07-02T03:23:55;28.90;36.90
80230;DHT22;69540;42.136;24.742;2023-07-02T03:26:21;28.80;36.70
80230;DHT22;69540;42.136;24.742;2023-07-02T03:28:48;28.80;36.80
80230;DHT22;69540;42.136;24.742;2023-07-02T03:31:13;28.80;36.80
80230;DHT22;69540;42.136;24.742;2023-07-02T03:33:39;28.80;36.80
80230;DHT22;69540;42.136;24.742;2023-07-02T03:36:04;28.80;36.80
80230;DHT22;69540;42.136;24.742;2023-07-02T03:38:30;28.80;36.80
80230;DHT22;69540;42.136;24.742;2023-07-02T03:40:56;28.80;36.80
80230;DHT22;69540;42.136;24.742;2023-07-02T03:43:21;28.80;36.80
80230;DHT22;69540;42.136;24.742;2023-07-02T03:45:47;28.80;36.80
80230;DHT22;69540;42.136;24.742;2023-07-02T03:48:13;28.80;36.80
80230;DHT22;69540;42.136;24.742;2023-07-02T03:50:38;28.80;36.80
80230;DHT22;69540;42.136;24.742;2023-07-02T03:53:04;28.80;36.80
80230;DHT22;69540;42.136;24.742;2023-07-02T03:55:31;28.80;36.80
80230;DHT22;69540;42.136;24.742;2023-07-02T03:57:56;28.80;36.80
80230;DHT22;69540;42.136;24.742;2023-07-02T04:00:22;28.80;36.80
80230;DHT22;69540;42.136;24.742;2023-07-02T04:02:47;28.90;36.90
80230;DHT22;69540;42.136;24.742;2023-07-02T04:05:13;28.80;36.80
80230;DHT22;69540;42.136;24.742;2023-07-02T04:07:39;28.80;36.90
80230;DHT22;69540;42.136;24.742;2023-07-02T04:10:05;28.80;37.90
80230;DHT22;69540;42.136;24.742;2023-07-02T04:12:31;28.80;36.90
80230;DHT22;69540;42.136;24.742;2023-07-02T04:14:56;28.80;36.90
80230;DHT22;69540;42.136;24.742;2023-07-02T04:17:22;28.90;36.90
80230;DHT22;69540;42.136;24.742;2023-07-02T04:19:47;28.80;36.90
80230;DHT22;69540;42.136;24.742;2023-07-02T04:22:14;28.80;36.90
80230;DHT22;69540;42.136;24.742;2023-07-02T04:24:40;28.80;36.90
80230;DHT22;69540;42.136;24.742;2023-07-02T04:27:05;28.90;36.90
80230;DHT22;69540;42.136;24.742;2023-07-02T04:29:31;28.80;36.90
80230;DHT22;69540;42.136;24.742;2023-07-02T04:31:56;28.80;36.90
80230;DHT22;69540;42.136;24.742;2023-07-02T04:34:22;28.80;36.90
80230;DHT22;69540;42.136;24.742;2023-07-02T04:36:48;28.80;36.90
80230;DHT22;69540;42.136;24.742;2023-07-02T04:39:13;28.80;36.90
80230;DHT22;69540;42.136;24.742;2023-07-02T04:41:39;28.80;36.90
80230;DHT22;69540;42.136;24.742;2023-07-02T04:44:05;28.90;37.00
80230;DHT22;69540;42.136;24.742;2023-07-02T04:46:30;28.80;36.90
80230;DHT22;69540;42.136;24.742;2023-07-02T04:48:56;28.80;36.90
80230;DHT22;69540;42.136;24.742;2023-07-02T04:51:22;28.80;37.00
80230;DHT22;69540;42.136;24.742;2023-07-02T04:53:47;28.80;37.00
80230;DHT22;69540;42.136;24.742;2023-07-02T04:56:13;28.80;36.90
80230;DHT22;69540;42.136;24.742;2023-07-02T04:58:38;28.80;37.00
80230;DHT22;69540;42.136;24.742;2023-07-02T05:01:04;28.80;37.00
80230;DHT22;69540;42.136;24.742;2023-07-02T05:03:30;28.90;37.10
80230;DHT22;69540;42.136;24.742;2023-07-02T05:05:56;28.80;37.00
80230;DHT22;69540;42.136;24.742;2023-07-02T05:08:21;28.90;37.00
80230;DHT22;69540;42.136;24.742;2023-07-02T05:10:47;28.80;36.90
80230;DHT22;69540;42.136;24.742;2023-07-02T05:13:13;28.80;36.90
80230;DHT22;69540;42.136;24.742;2023-07-02T05:15:39;28.80;37.00
80230;DHT22;69540;42.136;24.742;2023-07-02T05:18:04;28.80;36.90
80230;DHT22;69540;42.136;24.742;2023-07-02T05:20:32;28.80;37.00
80230;DHT22;69540;42.136;24.742;2023-07-02T05:22:57;28.80;36.90
80230;DHT22;69540;42.136;24.742;2023-07-02T05:25:23;28.80;37.00
80230;DHT22;69540;42.136;24.742;2023-07-02T05:27:48;28.80;38.00
80230;DHT22;69540;42.136;24.742;2023-07-02T05:30:14;28.90;37.00
80230;DHT22;69540;42.136;24.742;2023-07-02T05:32:40;28.90;37.00
80230;DHT22;69540;42.136;24.742;2023-07-02T05:35:05;28.80;37.00
80230;DHT22;69540;42.136;24.742;2023-07-02T05:37:31;28.90;37.10
80230;DHT22;69540;42.136;24.742;2023-07-02T05:39:57;28.90;37.10
80230;DHT22;69540;42.136;24.742;2023-07-02T05:42:22;28.80;37.00
80230;DHT22;69540;42.136;24.742;2023-07-02T05:44:48;28.90;37.10
80230;DHT22;69540;42.136;24.742;2023-07-02T05:47:14;28.90;37.10
80230;DHT22;69540;42.136;24.742;2023-07-02T05:49:41;28.80;37.00
80230;DHT22;69540;42.136;24.742;2023-07-02T05:52:08;28.80;37.10
80230;DHT22;69540;42.136;24.742;2023-07-02T05:54:33;28.80;37.10
80230;DHT22;69540;42.136;24.742;2023-07-02T05:56:59;28.80;37.20
80230;DHT22;69540;42.136;24.742;2023-07-02T05:59:25;28.80;37.20
80230;DHT22;69540;42.136;24.742;2023-07-02T06:01:50;28.80;37.20
80230;DHT22;69540;42.136;24.742;2023-07-02T06:04:16;28.80;37.20
80230;DHT22;69540;42.136;24.742;2023-07-02T06:06:42;28.80;37.20
80230;DHT22;69540;42.136;24.742;2023-07-02T06:09:07;28.80;37.30
80230;DHT22;69540;42.136;24.742;2023-07-02T06:11:34;28.80;37.20
80230;DHT22;69540;42.136;24.742;2023-07-02T06:14:00;28.80;37.20
80230;DHT22;69540;42.136;24.742;2023-07-02T06:16:25;28.80;37.30
80230;DHT22;69540;42.136;24.742;2023-07-02T06:18:51;28.80;38.50
80230;DHT22;69540;42.136;24.742;2023-07-02T06:21:17;28.80;37.30
80230;DHT22;69540;42.136;24.742;2023-07-02T06:23:43;28.80;37.30
80230;DHT22;69540;42.136;24.742;2023-07-02T06:26:09;28.80;37.40
80230;DHT22;69540;42.136;24.742;2023-07-02T06:28:35;28.80;38.50
80230;DHT22;69540;42.136;24.742;2023-07-02T06:31:00;28.80;37.60
80230;DHT22;69540;42.136;24.742;2023-07-02T06:33:26;28.80;37.50
80230;DHT22;69540;42.136;24.742;2023-07-02T06:35:52;28.80;37.60
80230;DHT22;69540;42.136;24.742;2023-07-02T06:38:17;28.80;37.50
80230;DHT22;69540;42.136;24.742;2023-07-02T06:40:43;28.80;37.60
80230;DHT22;69540;42.136;24.742;2023-07-02T06:43:09;28.80;37.60
80230;DHT22;69540;42.136;24.742;2023-07-02T06:45:35;28.80;37.70
80230;DHT22;69540;42.136;24.742;2023-07-02T06:48:00;28.80;37.60
80230;DHT22;69540;42.136;24.742;2023-07-02T06:50:26;28.80;37.60
80230;DHT22;69540;42.136;24.742;2023-07-02T06:52:52;28.80;37.70
80230;DHT22;69540;42.136;24.742;2023-07-02T06:55:17;28.80;37.70
80230;DHT22;69540;42.136;24.742;2023-07-02T06:57:44;28.80;37.70
80230;DHT22;69540;42.136;24.742;2023-07-02T07:00:12;28.80;37.70
80230;DHT22;69540;42.136;24.742;2023-07-02T07:02:38;28.80;37.70
80230;DHT22;69540;42.136;24.742;2023-07-02T07:05:03;28.80;37.70
80230;DHT22;69540;42.136;24.742;2023-07-02T07:07:29;28.80;37.70
80230;DHT22;69540;42.136;24.742;2023-07-02T07:09:55;28.80;37.70
80230;DHT22;69540;42.136;24.742;2023-07-02T07:12:21;28.80;37.60
80230;DHT22;69540;42.136;24.742;2023-07-02T07:14:47;28.80;37.70
80230;DHT22;69540;42.136;24.742;2023-07-02T07:17:12;28.80;37.80
80230;DHT22;69540;42.136;24.742;2023-07-02T07:19:38;28.80;37.70
80230;DHT22;69540;42.136;24.742;2023-07-02T07:22:03;28.80;37.70
80230;DHT22;69540;42.136;24.742;2023-07-02T07:24:29;28.80;37.80
80230;DHT22;69540;42.136;24.742;2023-07-02T07:26:55;28.80;37.70
80230;DHT22;69540;42.136;24.742;2023-07-02T07:29:22;28.80;37.70
80230;DHT22;69540;42.136;24.742;2023-07-02T07:31:47;28.80;37.60
80230;DHT22;69540;42.136;24.742;2023-07-02T07:34:13;28.80;37.60
80230;DHT22;69540;42.136;24.742;2023-07-02T07:36:39;28.80;37.80
80230;DHT22;69540;42.136;24.742;2023-07-02T07:39:04;28.80;37.70
80230;DHT22;69540;42.136;24.742;2023-07-02T07:41:30;28.80;37.70
80230;DHT22;69540;42.136;24.742;2023-07-02T07:43:56;28.90;37.90
80230;DHT22;69540;42.136;24.742;2023-07-02T07:46:22;28.90;37.80
80230;DHT22;69540;42.136;24.742;2023-07-02T07:48:48;28.90;37.80
80230;DHT22;69540;42.136;24.742;2023-07-02T07:51:13;28.80;37.60
80230;DHT22;69540;42.136;24.742;2023-07-02T07:53:39;28.80;37.60
80230;DHT22;69540;42.136;24.742;2023-07-02T07:56:05;28.80;37.70
80230;DHT22;69540;42.136;24.742;2023-07-02T07:58:31;28.90;37.70
80230;DHT22;69540;42.136;24.742;2023-07-02T08:00:59;28.80;37.70
80230;DHT22;69540;42.136;24.742;2023-07-02T08:03:25;28.90;37.70
80230;DHT22;69540;42.136;24.742;2023-07-02T08:05:50;28.80;37.60
80230;DHT22;69540;42.136;24.742;2023-07-02T08:08:16;28.90;37.70
80230;DHT22;69540;42.136;24.742;2023-07-02T08:10:42;28.80;37.60
80230;DHT22;69540;42.136;24.742;2023-07-02T08:13:08;28.80;37.60
80230;DHT22;69540;42.136;24.742;2023-07-02T08:15:34;28.80;37.70
80230;DHT22;69540;42.136;24.742;2023-07-02T08:17:59;28.80;37.60
80230;DHT22;69540;42.136;24.742;2023-07-02T08:20:25;28.90;37.60
80230;DHT22;69540;42.136;24.742;2023-07-02T08:22:51;28.80;37.50
80230;DHT22;69540;42.136;24.742;2023-07-02T08:25:17;28.80;37.50
80230;DHT22;69540;42.136;24.742;2023-07-02T08:27:43;28.80;37.60
80230;DHT22;69540;42.136;24.742;2023-07-02T08:30:09;28.90;37.60
80230;DHT22;69540;42.136;24.742;2023-07-02T08:32:35;28.90;37.70
80230;DHT22;69540;42.136;24.742;2023-07-02T08:35:01;28.80;37.50
80230;DHT22;69540;42.136;24.742;2023-07-02T08:37:26;28.80;37.40
80230;DHT22;69540;42.136;24.742;2023-07-02T08:39:52;28.90;37.50
80230;DHT22;69540;42.136;24.742;2023-07-02T08:42:18;28.80;37.40
80230;DHT22;69540;42.136;24.742;2023-07-02T08:44:47;28.80;37.40
80230;DHT22;69540;42.136;24.742;2023-07-02T08:47:14;28.80;37.40
80230;DHT22;69540;42.136;24.742;2023-07-02T08:49:40;28.90;37.40
80230;DHT22;69540;42.136;24.742;2023-07-02T08:52:06;28.90;37.40
80230;DHT22;69540;42.136;24.742;2023-07-02T08:54:32;28.90;37.40
80230;DHT22;69540;42.136;24.742;2023-07-02T08:56:58;28.90;37.40
80230;DHT22;69540;42.136;24.742;2023-07-02T08:59:23;28.90;37.40
80230;DHT22;69540;42.136;24.742;2023-07-02T09:01:51;28.90;37.40
80230;DHT22;69540;42.136;24.742;2023-07-02T09:04:27;28.90;37.40
80230;DHT22;69540;42.136;24.742;2023-07-02T09:09:29;28.90;37.40
80230;DHT22;69540;42.136;24.742;2023-07-02T09:11:54;28.90;37.40
80230;DHT22;69540;42.136;24.742;2023-07-02T09:14:30;28.90;37.40
80230;DHT22;69540;42.136;24.742;2023-07-02T09:17:07;28.90;37.40
80230;DHT22;69540;42.136;24.742;2023-07-02T09:19:34;28.90;37.40
80230;DHT22;69540;42.136;24.742;2023-07-02T09:22:01;28.90;37.40
80230;DHT22;69540;42.136;24.742;2023-07-02T09:24:31;28.90;38.40
80230;DHT22;69540;42.136;24.742;2023-07-02T09:26:59;28.90;37.40
80230;DHT22;69540;42.136;24.742;2023-07-02T09:29:33;28.90;37.40
80230;DHT22;69540;42.136;24.742;2023-07-02T09:32:04;28.90;37.30
80230;DHT22;69540;42.136;24.742;2023-07-02T09:34:34;28.90;37.30
80230;DHT22;69540;42.136;24.742;2023-07-02T09:37:01;28.90;37.30
80230;DHT22;69540;42.136;24.742;2023-07-02T09:39:31;28.90;37.30
80230;DHT22;69540;42.136;24.742;2023-07-02T09:41:59;28.90;37.30
80230;DHT22;69540;42.136;24.742;2023-07-02T09:44:30;28.90;37.30
80230;DHT22;69540;42.136;24.742;2023-07-02T09:47:05;28.90;37.30
80230;DHT22;69540;42.136;24.742;2023-07-02T09:49:34;28.90;37.30
80230;DHT22;69540;42.136;24.742;2023-07-02T09:52:07;28.90;37.30
80230;DHT22;69540;42.136;24.742;2023-07-02T09:54:33;28.90;37.30
80230;DHT22;69540;42.136;24.742;2023-07-02T09:57:00;28.90;37.30
80230;DHT22;69540;42.136;24.742;2023-07-02T09:59:26;28.90;37.30
80230;DHT22;69540;42.136;24.742;2023-07-02T10:01:52;28.90;37.30
80230;DHT22;69540;42.136;24.742;2023-07-02T10:04:19;28.90;37.20
80230;DHT22;69540;42.136;24.742;2023-07-02T10:06:53;28.90;37.20
80230;DHT22;69540;42.136;24.742;2023-07-02T10:09:21;28.90;37.20
80230;DHT22;69540;42.136;24.742;2023-07-02T10:11:47;28.90;37.20
80230;DHT22;69540;42.136;24.742;2023-07-02T10:14:13;28.90;37.20
80230;DHT22;69540;42.136;24.742;2023-07-02T10:16:53;28.90;37.30
80230;DHT22;69540;42.136;24.742;2023-07-02T10:19:19;28.90;37.20
80230;DHT22;69540;42.136;24.742;2023-07-02T10:21:45;28.90;37.20
80230;DHT22;69540;42.136;24.742;2023-07-02T10:24:17;28.90;37.30
80230;DHT22;69540;42.136;24.742;2023-07-02T10:27:00;28.90;37.30
80230;DHT22;69540;42.136;24.742;2023-07-02T10:29:27;28.90;37.20
80230;DHT22;69540;42.136;24.742;2023-07-02T10:31:57;28.90;37.30
80230;DHT22;69540;42.136;24.742;2023-07-02T10:34:33;28.90;37.30
80230;DHT22;69540;42.136;24.742;2023-07-02T10:37:03;28.90;37.20
80230;DHT22;69540;42.136;24.742;2023-07-02T10:39:30;28.90;37.20
80230;DHT22;69540;42.136;24.742;2023-07-02T10:42:09;28.90;37.20
80230;DHT22;69540;42.136;24.742;2023-07-02T10:44:50;28.90;37.20
80230;DHT22;69540;42.136;24.742;2023-07-02T10:47:15;28.90;37.30
80230;DHT22;69540;42.136;24.742;2023-07-02T10:49:41;28.90;37.30
80230;DHT22;69540;42.136;24.742;2023-07-02T10:52:07;28.90;37.30
80230;DHT22;69540;42.136;24.742;2023-07-02T10:54:59;28.90;37.30
80230;DHT22;69540;42.136;24.742;2023-07-02T10:57:24;28.90;37.30
80230;DHT22;69540;42.136;24.742;2023-07-02T10:59:50;28.90;37.30
80230;DHT22;69540;42.136;24.742;2023-07-02T11:02:17;28.90;37.40
80230;DHT22;69540;42.136;24.742;2023-07-02T11:04:42;28.90;37.20
80230;DHT22;69540;42.136;24.742;2023-07-02T11:07:10;28.80;37.20
80230;DHT22;69540;42.136;24.742;2023-07-02T11:09:36;28.90;37.30
80230;DHT22;69540;42.136;24.742;2023-07-02T11:12:02;28.90;37.30
80230;DHT22;69540;42.136;24.742;2023-07-02T11:14:34;28.90;37.20
80230;DHT22;69540;42.136;24.742;2023-07-02T11:17:05;28.90;37.20
80230;DHT22;69540;42.136;24.742;2023-07-02T11:19:34;28.90;37.20
80230;DHT22;69540;42.136;24.742;2023-07-02T11:22:01;28.90;37.20
80230;DHT22;69540;42.136;24.742;2023-07-02T11:24:32;28.90;37.20
80230;DHT22;69540;42.136;24.742;2023-07-02T11:27:00;28.90;37.20
80230;DHT22;69540;42.136;24.742;2023-07-02T11:29:27;28.90;37.20
80230;DHT22;69540;42.136;24.742;2023-07-02T11:31:53;28.90;38.30
80230;DHT22;69540;42.136;24.742;2023-07-02T11:34:21;28.90;37.20
80230;DHT22;69540;42.136;24.742;2023-07-02T11:36:47;28.90;37.20
80230;DHT22;69540;42.136;24.742;2023-07-02T11:39:13;28.90;37.30
80230;DHT22;69540;42.136;24.742;2023-07-02T11:41:42;28.90;37.20
80230;DHT22;69540;42.136;24.742;2023-07-02T11:44:08;28.90;37.20
80230;DHT22;69540;42.136;24.742;2023-07-02T11:46:34;28.90;37.20
80230;DHT22;69540;42.136;24.742;2023-07-02T11:49:01;28.90;37.40
80230;DHT22;69540;42.136;24.742;2023-07-02T11:51:27;28.90;37.30
80230;DHT22;69540;42.136;24.742;2023-07-02T11:53:52;28.90;37.20
80230;DHT22;69540;42.136;24.742;2023-07-02T11:56:18;28.90;37.30
80230;DHT22;69540;42.136;24.742;2023-07-02T11:58:43;28.90;37.20
80230;DHT22;69540;42.136;24.742;2023-07-02T12:01:09;28.90;37.30
80230;DHT22;69540;42.136;24.742;2023-07-02T12:03:35;28.90;37.30
80230;DHT22;69540;42.136;24.742;2023-07-02T12:06:00;28.90;37.30
80230;DHT22;69540;42.136;24.742;2023-07-02T12:08:27;28.90;37.20
80230;DHT22;69540;42.136;24.742;2023-07-02T12:10:53;28.90;37.30
80230;DHT22;69540;42.136;24.742;2023-07-02T12:13:18;28.90;37.20
80230;DHT22;69540;42.136;24.742;2023-07-02T12:15:46;28.90;37.20
80230;DHT22;69540;42.136;24.742;2023-07-02T12:18:12;28.90;37.20
80230;DHT22;69540;42.136;24.742;2023-07-02T12:20:39;28.90;37.20
80230;DHT22;69540;42.136;24.742;2023-07-02T12:23:05;28.90;37.20
80230;DHT22;69540;42.136;24.742;2023-07-02T12:25:31;28.90;37.20
80230;DHT22;69540;42.136;24.742;2023-07-02T12:27:57;28.90;37.30
80230;DHT22;69540;42.136;24.742;2023-07-02T12:30:22;28.90;37.20
80230;DHT22;69540;42.136;24.742;2023-07-02T12:32:48;28.90;37.20
80230;DHT22;69540;42.136;24.742;2023-07-02T12:35:14;28.90;37.20
80230;DHT22;69540;42.136;24.742;2023-07-02T12:37:47;28.90;37.20
80230;DHT22;69540;42.136;24.742;2023-07-02T12:40:13;28.90;37.20
80230;DHT22;69540;42.136;24.742;2023-07-02T12:42:40;29.00;37.30
80230;DHT22;69540;42.136;24.742;2023-07-02T12:45:07;28.90;37.20
80230;DHT22;69540;42.136;24.742;2023-07-02T12:47:33;28.90;37.20
80230;DHT22;69540;42.136;24.742;2023-07-02T12:49:58;28.90;37.30
80230;DHT22;69540;42.136;24.742;2023-07-02T12:52:24;28.90;37.20
80230;DHT22;69540;42.136;24.742;2023-07-02T12:54:50;28.90;37.30
80230;DHT22;69540;42.136;24.742;2023-07-02T12:57:16;28.90;37.20
80230;DHT22;69540;42.136;24.742;2023-07-02T12:59:42;28.90;37.30
80230;DHT22;69540;42.136;24.742;2023-07-02T13:02:10;28.90;37.30
80230;DHT22;69540;42.136;24.742;2023-07-02T13:04:36;28.90;37.30
80230;DHT22;69540;42.136;24.742;2023-07-02T13:07:02;28.90;37.30
80230;DHT22;69540;42.136;24.742;2023-07-02T13:09:27;28.90;37.30
80230;DHT22;69540;42.136;24.742;2023-07-02T13:11:53;28.90;37.30
80230;DHT22;69540;42.136;24.742;2023-07-02T13:14:19;28.90;37.30
80230;DHT22;69540;42.136;24.742;2023-07-02T13:16:44;28.90;37.40
80230;DHT22;69540;42.136;24.742;2023-07-02T13:19:10;28.90;37.40
80230;DHT22;69540;42.136;24.742;2023-07-02T13:21:36;28.90;37.30
80230;DHT22;69540;42.136;24.742;2023-07-02T13:24:02;28.90;37.40
80230;DHT22;69540;42.136;24.742;2023-07-02T13:26:28;28.90;37.40
80230;DHT22;69540;42.136;24.742;2023-07-02T13:28:54;28.90;37.40
80230;DHT22;69540;42.136;24.742;2023-07-02T13:31:19;28.90;37.40
80230;DHT22;69540;42.136;24.742;2023-07-02T13:33:45;28.90;37.40
80230;DHT22;69540;42.136;24.742;2023-07-02T13:36:14;28.90;37.40
80230;DHT22;69540;42.136;24.742;2023-07-02T13:38:40;28.90;37.40
80230;DHT22;69540;42.136;24.742;2023-07-02T13:41:06;29.00;37.40
80230;DHT22;69540;42.136;24.742;2023-07-02T13:43:31;28.90;37.40
80230;DHT22;69540;42.136;24.742;2023-07-02T13:45:57;28.90;37.30
80230;DHT22;69540;42.136;24.742;2023-07-02T13:48:23;28.90;37.40
80230;DHT22;69540;42.136;24.742;2023-07-02T13:50:48;28.90;37.40
80230;DHT22;69540;42.136;24.742;2023-07-02T13:53:14;28.90;37.40
80230;DHT22;69540;42.136;24.742;2023-07-02T13:55:39;28.90;37.40
80230;DHT22;69540;42.136;24.742;2023-07-02T13:58:05;28.90;37.40
80230;DHT22;69540;42.136;24.742;2023-07-02T14:00:31;28.90;37.40
80230;DHT22;69540;42.136;24.742;2023-07-02T14:02:56;28.90;37.40
80230;DHT22;69540;42.136;24.742;2023-07-02T14:05:22;28.90;37.40
80230;DHT22;69540;42.136;24.742;2023-07-02T14:07:48;28.90;37.40
80230;DHT22;69540;42.136;24.742;2023-07-02T14:10:14;28.90;37.40
80230;DHT22;69540;42.136;24.742;2023-07-02T14:12:41;28.90;38.20
80230;DHT22;69540;42.136;24.742;2023-07-02T14:15:08;28.90;37.50
80230;DHT22;69540;42.136;24.742;2023-07-02T14:17:34;28.90;37.40
80230;DHT22;69540;42.136;24.742;2023-07-02T14:20:00;28.90;37.40
80230;DHT22;69540;42.136;24.742;2023-07-02T14:22:26;28.90;37.40
80230;DHT22;69540;42.136;24.742;2023-07-02T14:24:52;28.90;37.50
80230;DHT22;69540;42.136;24.742;2023-07-02T14:27:17;28.90;37.50
80230;DHT22;69540;42.136;24.742;2023-07-02T14:29:43;28.90;37.60
80230;DHT22;69540;42.136;24.742;2023-07-02T14:32:09;28.90;37.60
80230;DHT22;69540;42.136;24.742;2023-07-02T14:34:34;28.90;37.60
80230;DHT22;69540;42.136;24.742;2023-07-02T14:37:02;28.90;37.60
80230;DHT22;69540;42.136;24.742;2023-07-02T14:39:28;28.90;37.60
80230;DHT22;69540;42.136;24.742;2023-07-02T14:41:54;28.90;37.60
80230;DHT22;69540;42.136;24.742;2023-07-02T14:44:20;28.90;37.60
80230;DHT22;69540;42.136;24.742;2023-07-02T14:46:45;28.90;37.60
80230;DHT22;69540;42.136;24.742;2023-07-02T14:49:11;28.90;37.60
80230;DHT22;69540;42.136;24.742;2023-07-02T14:51:37;28.90;37.70
80230;DHT22;69540;42.136;24.742;2023-07-02T14:54:02;28.90;37.70
80230;DHT22;69540;42.136;24.742;2023-07-02T14:56:30;28.90;37.80
80230;DHT22;69540;42.136;24.742;2023-07-02T14:58:56;28.90;37.70
80230;DHT22;69540;42.136;24.742;2023-07-02T15:01:21;28.90;37.80
80230;DHT22;69540;42.136;24.742;2023-07-02T15:03:47;28.90;37.80
80230;DHT22;69540;42.136;24.742;2023-07-02T15:06:15;28.90;37.70
80230;DHT22;69540;42.136;24.742;2023-07-02T15:08:41;28.90;37.80
80230;DHT22;69540;42.136;24.742;2023-07-02T15:11:09;28.90;37.80
80230;DHT22;69540;42.136;24.742;2023-07-02T15:13:35;28.90;37.80